Punta Gorda, FL

2:24 AM EDT on July 27, 2016 (GMT -0400)
Charlotte County | | Change Station

Elev 26 ft 26.92 °N, 81.99 °W | Updated 31 minutes ago

Clear
Clear
78 °F
Feels Like 78 °F
N
4
Wind Variable Wind from NNE

Today
High -- | Low -- °F
--% Chance of Precip.
Yesterday
High -- | Low -- °F
Precip. -- in
Pressure 30.09 in
Visibility 10.0 miles
Clouds Clear
Dew Point 75 °F
Humidity 90%
Rainfall 0.00 in
Snow Depth Not available.
6:50 AM 8:18 PM
Waning Gibbous, 46% visible
METAR KPGD 270553Z 02003KT 10SM CLR 26/24 A3008 RMK AO2 SLP188 60000 T02560239 10294 20250 58001
Pressure 30.09 in
Visibility 10.0 miles
Clouds Clear
Dew Point 75 °F
Humidity 90%
Rainfall 0.00 in
Snow Depth Not available.
6:50 AM 8:18 PM
Waning Gibbous, 46% visible
METAR KPGD 270553Z 02003KT 10SM CLR 26/24 A3008 RMK AO2 SLP188 60000 T02560239 10294 20250 58001

10-Day Weather Forecast

Almanac

Astronomy

Jul. 27, 2016 Rise Set
Actual Time
Civil Twilight
Nautical Twilight
Astronomical Twilight
Moon
Length of Visible Light
Length of Day
Tomorrow will be .
, % of the Moon is Illuminated

Today's Extremes

State Highs State Lows

Community

WunderPhotos

Upload Photos

1,927,818 photos uploaded!

WunderBlog® & News

Nearby

Air Quality

  Air Quality AQ Index Pollutant
Not available.

Snow Depth

Station Depth Elevation

Earthquake Activity

City Distance Mag. Time & Date
Minimum magnitude displayed is 2.5.

Coastal Water Temperatures

Place Temperature

Stations

Nearby Weather Stations

Station Location Temp. Windchill Dew Point Humidity Wind Precip. Elev Updated Type
                   

Watches & Warnings

There are currently no watches in effect.